• Join FlightAware (Why Join?)
  • Login
  • US Flag 
10:54PM EDT


 

Airport Tracker/Info


-or-


 

Live Flight TrackerFlight Track Log ✈ JIA2374 ✈ 07-May-2013 ✈ KCLT - KILM

Flight Track Log - Related Links

Times and Time Zones

All times are in EDT time to prevent confusion due to time zone crossing. See the JIA2374 flight status page for this flight to view local times or setup timezone preferences in your user account.

Time Position Orientation Groundspeed Altitude Reporting Facility
EDT Latitude Longitude Course Direction KTS MPH feet Rate Location/Type
02:50PM 35.1972 -80.9381 171° South 150 173 1,600  Level Atlanta Center
02:51PM 35.1511 -80.9294 171° South 188 216 3,400 1,920 Climbing Atlanta Center
02:52PM 35.0994 -80.8756 140° Southeast 273 314 5,400 2,220 Climbing Atlanta Center
02:53PM 35.0989 -80.7742 90° East 290 334 8,000 1,260 Climbing Atlanta Center
02:54PM 35.1092 -80.6822 82° East 279 321 8,000 1,320 Level Atlanta Center
02:55PM 35.0939 -80.5864 101° East 292 336 10,700 2,640 Climbing Atlanta Center
02:56PM 35.0678 -80.4733 106° East 314 361 13,700 2,400 Climbing Atlanta Center
02:57PM 35.0583 -80.3697 96° East 309 356 15,900 960 Climbing Atlanta Center
02:59PM 35.0678 -80.0911 88° East 360 414 17,000 300 Climbing Washington Center
03:00PM 35.0603 -79.9564 94° East 368 423 17,000  Level Washington Center
03:01PM 35.0414 -79.8436 102° East 368 423 17,000  Level Washington Center
03:02PM 35.0189 -79.7106 102° East 373 429 17,000  Level Washington Center
03:03PM 34.9997 -79.6006 102° East 373 429 17,000  Level Washington Center
03:04PM 34.9769 -79.4678 102° East 373 429 17,000  Level Washington Center
03:05PM 34.9642 -79.3431 97° East 373 429 17,000  Level Washington Center
03:06PM 34.9681 -79.2164 88° East 368 423 17,000  Level Washington Center
03:07PM 34.9739 -79.0925 87° East 368 423 17,000  Level Washington Center
03:08PM 34.9839 -78.9661 84° East 371 427 17,000  Level Washington Center
03:09PM 34.9644 -78.8436 101° East 363 418 17,000  Level Washington Center
03:10PM 34.9064 -78.7475 126° Southeast 342 394 17,000 -480 Level Washington Center
03:11PM 34.8500 -78.6644 130° Southeast 348 400 16,100 -1,020 Descending Washington Center
03:12PM 34.7881 -78.5608 126° Southeast 354 407 15,000 -1,380 Descending Washington Center
03:13PM 34.7319 -78.4706 127° Southeast 340 391 13,400 -1,560 Descending Washington Center
03:14PM 34.6775 -78.3903 129° Southeast 327 376 11,900 -1,620 Descending Washington Center
03:15PM 34.6292 -78.3128 127° Southeast 301 346 10,200 -1,740 Descending Washington Center
03:16PM 34.5786 -78.2356 128° Southeast 295 339 8,500 -1,620 Descending Washington Center
03:17PM 34.5258 -78.1658 133° Southeast 290 334 7,000 -780 Descending Washington Center
03:18PM 34.5089 -78.0844 104° East 261 300 7,000 -420 Level Washington Center
03:19PM 34.5211 -77.9967 80° East 249 287 6,200 -840 Descending Washington Center
03:20PM 34.5353 -77.9189 78° East 238 274 5,400 -600 Descending Washington Center
03:21PM 34.5281 -77.8608 99° East 183 211 5,000 -420 Descending Washington Center